sensor_id;sensor_type;location;lat;lon;timestamp;temperature;humidity
24148;DHT22;12309;51.450;-2.624;2023-04-08T00:00:05;7.40;99.90
24148;DHT22;12309;51.450;-2.624;2023-04-08T00:02:32;7.30;99.90
24148;DHT22;12309;51.450;-2.624;2023-04-08T00:04:58;7.20;99.90
24148;DHT22;12309;51.450;-2.624;2023-04-08T00:07:23;7.20;99.90
24148;DHT22;12309;51.450;-2.624;2023-04-08T00:09:49;7.20;99.90
24148;DHT22;12309;51.450;-2.624;2023-04-08T00:12:15;7.20;99.90
24148;DHT22;12309;51.450;-2.624;2023-04-08T00:14:41;7.20;99.90
24148;DHT22;12309;51.450;-2.624;2023-04-08T00:17:07;7.20;99.90
24148;DHT22;12309;51.450;-2.624;2023-04-08T00:19:33;7.10;99.90
24148;DHT22;12309;51.450;-2.624;2023-04-08T00:21:58;7.30;99.90
24148;DHT22;12309;51.450;-2.624;2023-04-08T00:24:24;7.10;99.90
24148;DHT22;12309;51.450;-2.624;2023-04-08T00:26:51;7.10;99.90
24148;DHT22;12309;51.450;-2.624;2023-04-08T00:29:16;7.00;99.90
24148;DHT22;12309;51.450;-2.624;2023-04-08T00:31:42;7.00;99.90
24148;DHT22;12309;51.450;-2.624;2023-04-08T00:34:08;6.90;99.90
24148;DHT22;12309;51.450;-2.624;2023-04-08T00:36:33;7.00;99.90
24148;DHT22;12309;51.450;-2.624;2023-04-08T00:39:00;7.00;99.90
24148;DHT22;12309;51.450;-2.624;2023-04-08T00:41:26;7.00;99.90
24148;DHT22;12309;51.450;-2.624;2023-04-08T00:43:53;6.80;99.90
24148;DHT22;12309;51.450;-2.624;2023-04-08T00:46:19;5.80;99.90
24148;DHT22;12309;51.450;-2.624;2023-04-08T00:48:45;6.70;99.90
24148;DHT22;12309;51.450;-2.624;2023-04-08T00:51:11;6.60;99.90
24148;DHT22;12309;51.450;-2.624;2023-04-08T00:53:37;6.60;99.90
24148;DHT22;12309;51.450;-2.624;2023-04-08T00:56:02;6.60;99.90
24148;DHT22;12309;51.450;-2.624;2023-04-08T00:58:28;6.60;99.90
24148;DHT22;12309;51.450;-2.624;2023-04-08T01:01:01;6.50;99.90
24148;DHT22;12309;51.450;-2.624;2023-04-08T01:03:51;4.20;99.90
24148;DHT22;12309;51.450;-2.624;2023-04-08T01:06:32;7.70;99.90
24148;DHT22;12309;51.450;-2.624;2023-04-08T01:09:04;6.60;99.90
24148;DHT22;12309;51.450;-2.624;2023-04-08T01:11:31;6.60;99.90
24148;DHT22;12309;51.450;-2.624;2023-04-08T01:14:01;6.50;99.90
24148;DHT22;12309;51.450;-2.624;2023-04-08T01:16:31;6.60;99.90
24148;DHT22;12309;51.450;-2.624;2023-04-08T01:18:58;6.60;99.90
24148;DHT22;12309;51.450;-2.624;2023-04-08T01:21:25;6.70;99.90
24148;DHT22;12309;51.450;-2.624;2023-04-08T01:24:08;6.50;99.90
24148;DHT22;12309;51.450;-2.624;2023-04-08T01:26:36;6.30;99.90
24148;DHT22;12309;51.450;-2.624;2023-04-08T01:29:02;6.30;99.90
24148;DHT22;12309;51.450;-2.624;2023-04-08T01:31:29;6.30;99.90
24148;DHT22;12309;51.450;-2.624;2023-04-08T01:33:56;6.40;99.90
24148;DHT22;12309;51.450;-2.624;2023-04-08T01:36:25;6.30;99.90
24148;DHT22;12309;51.450;-2.624;2023-04-08T01:41:17;6.10;99.90
24148;DHT22;12309;51.450;-2.624;2023-04-08T01:43:46;6.00;99.90
24148;DHT22;12309;51.450;-2.624;2023-04-08T01:46:14;6.20;99.90
24148;DHT22;12309;51.450;-2.624;2023-04-08T01:48:40;6.10;99.90
24148;DHT22;12309;51.450;-2.624;2023-04-08T01:51:06;6.10;99.90
24148;DHT22;12309;51.450;-2.624;2023-04-08T01:53:33;6.20;99.90
24148;DHT22;12309;51.450;-2.624;2023-04-08T01:56:08;6.00;99.90
24148;DHT22;12309;51.450;-2.624;2023-04-08T01:58:38;5.90;99.90
24148;DHT22;12309;51.450;-2.624;2023-04-08T02:01:06;5.80;99.90
24148;DHT22;12309;51.450;-2.624;2023-04-08T02:03:35;5.70;99.90
24148;DHT22;12309;51.450;-2.624;2023-04-08T02:06:01;5.70;99.90
24148;DHT22;12309;51.450;-2.624;2023-04-08T02:08:27;5.70;99.90
24148;DHT22;12309;51.450;-2.624;2023-04-08T02:10:52;5.70;99.90
24148;DHT22;12309;51.450;-2.624;2023-04-08T02:13:18;5.70;99.90
24148;DHT22;12309;51.450;-2.624;2023-04-08T02:15:49;5.70;99.90
24148;DHT22;12309;51.450;-2.624;2023-04-08T02:18:21;5.70;99.90
24148;DHT22;12309;51.450;-2.624;2023-04-08T02:21:18;5.70;99.90
24148;DHT22;12309;51.450;-2.624;2023-04-08T02:23:48;5.70;99.90
24148;DHT22;12309;51.450;-2.624;2023-04-08T02:26:16;5.70;99.90
24148;DHT22;12309;51.450;-2.624;2023-04-08T02:28:43;5.70;99.90
24148;DHT22;12309;51.450;-2.624;2023-04-08T02:31:11;5.70;99.90
24148;DHT22;12309;51.450;-2.624;2023-04-08T02:33:40;5.60;99.90
24148;DHT22;12309;51.450;-2.624;2023-04-08T02:36:07;5.70;99.90
24148;DHT22;12309;51.450;-2.624;2023-04-08T02:38:33;5.70;99.90
24148;DHT22;12309;51.450;-2.624;2023-04-08T02:40:58;5.70;99.90
24148;DHT22;12309;51.450;-2.624;2023-04-08T02:45:59;5.50;99.90
24148;DHT22;12309;51.450;-2.624;2023-04-08T02:48:27;5.50;99.90
24148;DHT22;12309;51.450;-2.624;2023-04-08T02:50:53;5.60;99.90
24148;DHT22;12309;51.450;-2.624;2023-04-08T02:53:19;5.60;99.90
24148;DHT22;12309;51.450;-2.624;2023-04-08T02:55:44;5.50;99.90
24148;DHT22;12309;51.450;-2.624;2023-04-08T02:58:10;5.70;99.90
24148;DHT22;12309;51.450;-2.624;2023-04-08T03:03:04;5.40;99.90
24148;DHT22;12309;51.450;-2.624;2023-04-08T03:05:30;5.40;99.90
24148;DHT22;12309;51.450;-2.624;2023-04-08T03:07:56;5.40;99.90
24148;DHT22;12309;51.450;-2.624;2023-04-08T03:10:22;5.40;99.90
24148;DHT22;12309;51.450;-2.624;2023-04-08T03:15:13;5.40;99.90
24148;DHT22;12309;51.450;-2.624;2023-04-08T03:17:39;5.40;99.90
24148;DHT22;12309;51.450;-2.624;2023-04-08T03:20:05;5.30;99.90
24148;DHT22;12309;51.450;-2.624;2023-04-08T03:22:32;5.30;99.90
24148;DHT22;12309;51.450;-2.624;2023-04-08T03:24:57;5.30;99.90
24148;DHT22;12309;51.450;-2.624;2023-04-08T03:27:23;5.30;99.90
24148;DHT22;12309;51.450;-2.624;2023-04-08T03:29:49;5.40;99.90
24148;DHT22;12309;51.450;-2.624;2023-04-08T03:32:14;5.20;99.90
24148;DHT22;12309;51.450;-2.624;2023-04-08T03:34:40;5.30;99.90
24148;DHT22;12309;51.450;-2.624;2023-04-08T03:37:06;5.30;99.90
24148;DHT22;12309;51.450;-2.624;2023-04-08T03:39:32;5.20;99.90
24148;DHT22;12309;51.450;-2.624;2023-04-08T03:41:58;5.20;99.90
24148;DHT22;12309;51.450;-2.624;2023-04-08T03:44:25;5.20;99.90
24148;DHT22;12309;51.450;-2.624;2023-04-08T03:46:51;5.00;99.90
24148;DHT22;12309;51.450;-2.624;2023-04-08T03:49:17;5.10;99.90
24148;DHT22;12309;51.450;-2.624;2023-04-08T03:51:42;4.90;99.90
24148;DHT22;12309;51.450;-2.624;2023-04-08T03:54:08;5.00;99.90
24148;DHT22;12309;51.450;-2.624;2023-04-08T03:59:00;4.90;99.90
24148;DHT22;12309;51.450;-2.624;2023-04-08T04:01:25;5.10;99.90
24148;DHT22;12309;51.450;-2.624;2023-04-08T04:03:51;4.80;99.90
24148;DHT22;12309;51.450;-2.624;2023-04-08T04:06:16;4.80;99.90
24148;DHT22;12309;51.450;-2.624;2023-04-08T04:08:42;4.80;99.90
24148;DHT22;12309;51.450;-2.624;2023-04-08T04:11:08;4.80;99.90
24148;DHT22;12309;51.450;-2.624;2023-04-08T04:13:34;4.90;99.90
24148;DHT22;12309;51.450;-2.624;2023-04-08T04:16:00;4.90;99.90
24148;DHT22;12309;51.450;-2.624;2023-04-08T04:18:25;5.20;99.90
24148;DHT22;12309;51.450;-2.624;2023-04-08T04:20:51;4.90;99.90
24148;DHT22;12309;51.450;-2.624;2023-04-08T04:23:16;4.90;99.90
24148;DHT22;12309;51.450;-2.624;2023-04-08T04:25:42;4.80;99.90
24148;DHT22;12309;51.450;-2.624;2023-04-08T04:28:08;4.70;99.90
24148;DHT22;12309;51.450;-2.624;2023-04-08T04:30:38;4.70;99.90
24148;DHT22;12309;51.450;-2.624;2023-04-08T04:33:04;4.70;99.90
24148;DHT22;12309;51.450;-2.624;2023-04-08T04:35:30;4.70;99.90
24148;DHT22;12309;51.450;-2.624;2023-04-08T04:37:56;4.40;99.90
24148;DHT22;12309;51.450;-2.624;2023-04-08T04:40:22;4.40;99.90
24148;DHT22;12309;51.450;-2.624;2023-04-08T04:42:48;4.40;99.90
24148;DHT22;12309;51.450;-2.624;2023-04-08T04:45:13;4.20;99.90
24148;DHT22;12309;51.450;-2.624;2023-04-08T04:47:39;4.40;99.90
24148;DHT22;12309;51.450;-2.624;2023-04-08T04:50:06;4.50;99.90
24148;DHT22;12309;51.450;-2.624;2023-04-08T04:52:31;4.50;99.90
24148;DHT22;12309;51.450;-2.624;2023-04-08T04:54:57;4.60;99.90
24148;DHT22;12309;51.450;-2.624;2023-04-08T04:57:23;4.70;99.90
24148;DHT22;12309;51.450;-2.624;2023-04-08T04:59:49;4.60;99.90
24148;DHT22;12309;51.450;-2.624;2023-04-08T05:02:15;4.60;99.90
24148;DHT22;12309;51.450;-2.624;2023-04-08T05:04:40;4.80;99.90
24148;DHT22;12309;51.450;-2.624;2023-04-08T05:07:06;4.60;99.90
24148;DHT22;12309;51.450;-2.624;2023-04-08T05:09:32;4.70;99.90
24148;DHT22;12309;51.450;-2.624;2023-04-08T05:11:57;4.50;99.90
24148;DHT22;12309;51.450;-2.624;2023-04-08T05:14:23;4.60;99.90
24148;DHT22;12309;51.450;-2.624;2023-04-08T05:16:48;4.60;99.90
24148;DHT22;12309;51.450;-2.624;2023-04-08T05:19:14;4.60;99.90
24148;DHT22;12309;51.450;-2.624;2023-04-08T05:21:40;4.70;99.90
24148;DHT22;12309;51.450;-2.624;2023-04-08T05:24:05;4.60;99.90
24148;DHT22;12309;51.450;-2.624;2023-04-08T05:26:31;4.50;99.90
24148;DHT22;12309;51.450;-2.624;2023-04-08T05:28:57;4.50;99.90
24148;DHT22;12309;51.450;-2.624;2023-04-08T05:31:23;4.50;99.90
24148;DHT22;12309;51.450;-2.624;2023-04-08T05:33:48;4.50;99.90
24148;DHT22;12309;51.450;-2.624;2023-04-08T05:36:14;4.50;99.90
24148;DHT22;12309;51.450;-2.624;2023-04-08T05:38:40;4.50;99.90
24148;DHT22;12309;51.450;-2.624;2023-04-08T05:41:07;4.50;99.90
24148;DHT22;12309;51.450;-2.624;2023-04-08T05:43:33;4.60;99.90
24148;DHT22;12309;51.450;-2.624;2023-04-08T05:45:58;4.60;99.90
24148;DHT22;12309;51.450;-2.624;2023-04-08T05:48:24;4.50;99.90
24148;DHT22;12309;51.450;-2.624;2023-04-08T05:50:50;4.60;99.90
24148;DHT22;12309;51.450;-2.624;2023-04-08T05:53:15;4.70;99.90
24148;DHT22;12309;51.450;-2.624;2023-04-08T05:58:07;4.60;99.90
24148;DHT22;12309;51.450;-2.624;2023-04-08T06:00:33;4.90;99.90
24148;DHT22;12309;51.450;-2.624;2023-04-08T06:02:59;4.90;99.90
24148;DHT22;12309;51.450;-2.624;2023-04-08T06:05:24;5.00;99.90
24148;DHT22;12309;51.450;-2.624;2023-04-08T06:07:50;4.70;99.90
24148;DHT22;12309;51.450;-2.624;2023-04-08T06:10:16;5.40;99.90
24148;DHT22;12309;51.450;-2.624;2023-04-08T06:12:42;5.10;99.90
24148;DHT22;12309;51.450;-2.624;2023-04-08T06:15:08;5.30;99.90
24148;DHT22;12309;51.450;-2.624;2023-04-08T06:17:37;5.10;99.90
24148;DHT22;12309;51.450;-2.624;2023-04-08T06:20:04;5.20;99.90
24148;DHT22;12309;51.450;-2.624;2023-04-08T06:22:30;5.20;99.90
24148;DHT22;12309;51.450;-2.624;2023-04-08T06:27:22;5.50;99.90
24148;DHT22;12309;51.450;-2.624;2023-04-08T06:29:47;5.50;99.90
24148;DHT22;12309;51.450;-2.624;2023-04-08T06:32:13;5.60;99.90
24148;DHT22;12309;51.450;-2.624;2023-04-08T06:34:39;5.60;99.90
24148;DHT22;12309;51.450;-2.624;2023-04-08T06:37:05;5.60;99.90
24148;DHT22;12309;51.450;-2.624;2023-04-08T06:39:31;5.70;99.90
24148;DHT22;12309;51.450;-2.624;2023-04-08T06:41:57;5.80;99.90
24148;DHT22;12309;51.450;-2.624;2023-04-08T06:44:24;5.90;99.90
24148;DHT22;12309;51.450;-2.624;2023-04-08T06:46:49;6.10;99.90
24148;DHT22;12309;51.450;-2.624;2023-04-08T06:49:15;6.40;99.90
24148;DHT22;12309;51.450;-2.624;2023-04-08T06:51:41;6.50;99.90
24148;DHT22;12309;51.450;-2.624;2023-04-08T06:54:06;6.30;99.90
24148;DHT22;12309;51.450;-2.624;2023-04-08T06:56:34;6.50;99.90
24148;DHT22;12309;51.450;-2.624;2023-04-08T06:59:00;6.70;99.90
24148;DHT22;12309;51.450;-2.624;2023-04-08T07:01:25;7.00;99.90
24148;DHT22;12309;51.450;-2.624;2023-04-08T07:03:51;6.80;99.90
24148;DHT22;12309;51.450;-2.624;2023-04-08T07:06:17;6.90;99.90
24148;DHT22;12309;51.450;-2.624;2023-04-08T07:08:42;7.00;99.90
24148;DHT22;12309;51.450;-2.624;2023-04-08T07:11:08;7.10;99.90
24148;DHT22;12309;51.450;-2.624;2023-04-08T07:15:59;7.30;99.90
24148;DHT22;12309;51.450;-2.624;2023-04-08T07:18:25;7.40;99.90
24148;DHT22;12309;51.450;-2.624;2023-04-08T07:20:51;7.50;99.90
24148;DHT22;12309;51.450;-2.624;2023-04-08T07:25:45;7.80;99.90
24148;DHT22;12309;51.450;-2.624;2023-04-08T07:28:11;7.90;99.90
24148;DHT22;12309;51.450;-2.624;2023-04-08T07:30:37;8.10;99.90
24148;DHT22;12309;51.450;-2.624;2023-04-08T07:33:02;8.10;99.90
24148;DHT22;12309;51.450;-2.624;2023-04-08T07:35:28;8.10;99.90
24148;DHT22;12309;51.450;-2.624;2023-04-08T07:37:54;8.30;99.90
24148;DHT22;12309;51.450;-2.624;2023-04-08T07:42:46;8.30;99.90
24148;DHT22;12309;51.450;-2.624;2023-04-08T07:45:12;8.50;99.90
24148;DHT22;12309;51.450;-2.624;2023-04-08T07:47:37;8.60;99.90
24148;DHT22;12309;51.450;-2.624;2023-04-08T07:50:03;8.80;99.90
24148;DHT22;12309;51.450;-2.624;2023-04-08T07:52:29;9.00;99.90
24148;DHT22;12309;51.450;-2.624;2023-04-08T07:54:55;9.20;99.90
24148;DHT22;12309;51.450;-2.624;2023-04-08T07:57:21;9.30;99.90
24148;DHT22;12309;51.450;-2.624;2023-04-08T07:59:46;9.60;99.90
24148;DHT22;12309;51.450;-2.624;2023-04-08T08:04:38;9.90;99.90
24148;DHT22;12309;51.450;-2.624;2023-04-08T08:07:04;10.10;99.90
24148;DHT22;12309;51.450;-2.624;2023-04-08T08:09:30;10.30;99.90
24148;DHT22;12309;51.450;-2.624;2023-04-08T08:14:22;11.10;99.90
24148;DHT22;12309;51.450;-2.624;2023-04-08T08:16:47;12.20;99.90
24148;DHT22;12309;51.450;-2.624;2023-04-08T08:19:14;12.90;99.90
24148;DHT22;12309;51.450;-2.624;2023-04-08T08:21:39;13.20;99.90
24148;DHT22;12309;51.450;-2.624;2023-04-08T08:24:05;13.40;99.90
24148;DHT22;12309;51.450;-2.624;2023-04-08T08:26:34;14.10;99.90
24148;DHT22;12309;51.450;-2.624;2023-04-08T08:29:01;14.30;99.90
24148;DHT22;12309;51.450;-2.624;2023-04-08T08:31:26;14.60;99.90
24148;DHT22;12309;51.450;-2.624;2023-04-08T08:33:52;15.00;99.90
24148;DHT22;12309;51.450;-2.624;2023-04-08T08:36:17;15.00;99.90
24148;DHT22;12309;51.450;-2.624;2023-04-08T08:38:43;15.80;99.90
24148;DHT22;12309;51.450;-2.624;2023-04-08T08:41:09;16.80;99.90
24148;DHT22;12309;51.450;-2.624;2023-04-08T08:43:34;17.70;99.90
24148;DHT22;12309;51.450;-2.624;2023-04-08T08:46:01;18.40;99.90
24148;DHT22;12309;51.450;-2.624;2023-04-08T08:48:26;18.40;99.90
24148;DHT22;12309;51.450;-2.624;2023-04-08T08:50:52;18.60;99.90
24148;DHT22;12309;51.450;-2.624;2023-04-08T08:53:18;18.00;99.90
24148;DHT22;12309;51.450;-2.624;2023-04-08T08:55:45;18.50;99.90
24148;DHT22;12309;51.450;-2.624;2023-04-08T08:58:10;18.40;99.90
24148;DHT22;12309;51.450;-2.624;2023-04-08T09:00:38;16.80;99.90
24148;DHT22;12309;51.450;-2.624;2023-04-08T09:05:57;16.40;99.90
24148;DHT22;12309;51.450;-2.624;2023-04-08T09:08:31;16.30;99.90
24148;DHT22;12309;51.450;-2.624;2023-04-08T09:11:17;16.40;99.90
24148;DHT22;12309;51.450;-2.624;2023-04-08T09:13:44;17.40;99.90
24148;DHT22;12309;51.450;-2.624;2023-04-08T09:16:12;17.40;99.90
24148;DHT22;12309;51.450;-2.624;2023-04-08T09:18:39;17.00;99.90
24148;DHT22;12309;51.450;-2.624;2023-04-08T09:21:06;17.30;99.90
24148;DHT22;12309;51.450;-2.624;2023-04-08T09:23:38;17.00;99.90
24148;DHT22;12309;51.450;-2.624;2023-04-08T09:26:23;17.60;99.90
24148;DHT22;12309;51.450;-2.624;2023-04-08T09:29:06;18.10;99.90
24148;DHT22;12309;51.450;-2.624;2023-04-08T09:31:36;17.70;99.90
24148;DHT22;12309;51.450;-2.624;2023-04-08T09:34:13;17.80;99.90
24148;DHT22;12309;51.450;-2.624;2023-04-08T09:36:45;17.70;99.90
24148;DHT22;12309;51.450;-2.624;2023-04-08T09:39:11;17.60;99.90
24148;DHT22;12309;51.450;-2.624;2023-04-08T09:41:38;17.50;99.90
24148;DHT22;12309;51.450;-2.624;2023-04-08T09:44:05;17.60;99.90
24148;DHT22;12309;51.450;-2.624;2023-04-08T09:49:26;17.10;99.90
24148;DHT22;12309;51.450;-2.624;2023-04-08T09:52:05;17.10;99.90
24148;DHT22;12309;51.450;-2.624;2023-04-08T09:54:51;17.80;99.90
24148;DHT22;12309;51.450;-2.624;2023-04-08T09:57:40;17.80;99.90
24148;DHT22;12309;51.450;-2.624;2023-04-08T10:00:12;18.20;99.90
24148;DHT22;12309;51.450;-2.624;2023-04-08T10:03:17;18.20;99.90
24148;DHT22;12309;51.450;-2.624;2023-04-08T10:05:47;17.00;99.90
24148;DHT22;12309;51.450;-2.624;2023-04-08T10:08:14;16.70;99.90
24148;DHT22;12309;51.450;-2.624;2023-04-08T10:10:40;16.10;99.90
24148;DHT22;12309;51.450;-2.624;2023-04-08T10:13:07;16.70;99.90
24148;DHT22;12309;51.450;-2.624;2023-04-08T10:15:33;16.50;99.90
24148;DHT22;12309;51.450;-2.624;2023-04-08T10:23:05;15.70;99.90
24148;DHT22;12309;51.450;-2.624;2023-04-08T10:25:36;15.80;99.90
24148;DHT22;12309;51.450;-2.624;2023-04-08T10:30:55;16.60;99.90
24148;DHT22;12309;51.450;-2.624;2023-04-08T10:33:31;17.20;99.90
24148;DHT22;12309;51.450;-2.624;2023-04-08T10:36:09;16.90;99.90
24148;DHT22;12309;51.450;-2.624;2023-04-08T10:38:40;17.00;99.90
24148;DHT22;12309;51.450;-2.624;2023-04-08T10:41:09;17.70;99.90
24148;DHT22;12309;51.450;-2.624;2023-04-08T10:43:38;17.60;99.90
24148;DHT22;12309;51.450;-2.624;2023-04-08T10:46:03;18.90;99.90
24148;DHT22;12309;51.450;-2.624;2023-04-08T10:48:30;19.10;99.90
24148;DHT22;12309;51.450;-2.624;2023-04-08T10:51:00;19.00;99.90
24148;DHT22;12309;51.450;-2.624;2023-04-08T10:53:36;19.80;99.90
24148;DHT22;12309;51.450;-2.624;2023-04-08T10:56:11;19.30;99.90
24148;DHT22;12309;51.450;-2.624;2023-04-08T10:58:51;19.30;99.90
24148;DHT22;12309;51.450;-2.624;2023-04-08T11:01:17;18.90;99.90
24148;DHT22;12309;51.450;-2.624;2023-04-08T11:03:43;19.40;99.90
24148;DHT22;12309;51.450;-2.624;2023-04-08T11:06:09;20.10;99.90
24148;DHT22;12309;51.450;-2.624;2023-04-08T11:08:36;20.30;90.30
24148;DHT22;12309;51.450;-2.624;2023-04-08T11:11:02;20.30;90.60
24148;DHT22;12309;51.450;-2.624;2023-04-08T11:13:30;20.60;90.00
24148;DHT22;12309;51.450;-2.624;2023-04-08T11:15:57;21.70;71.70
24148;DHT22;12309;51.450;-2.624;2023-04-08T11:18:24;21.70;58.00
24148;DHT22;12309;51.450;-2.624;2023-04-08T11:20:51;20.80;69.40
24148;DHT22;12309;51.450;-2.624;2023-04-08T11:23:17;20.60;63.10
24148;DHT22;12309;51.450;-2.624;2023-04-08T11:25:44;20.90;44.80
24148;DHT22;12309;51.450;-2.624;2023-04-08T11:28:11;20.90;45.00
24148;DHT22;12309;51.450;-2.624;2023-04-08T11:30:38;19.30;56.40
24148;DHT22;12309;51.450;-2.624;2023-04-08T11:33:05;18.40;89.20
24148;DHT22;12309;51.450;-2.624;2023-04-08T11:35:31;17.10;99.90
24148;DHT22;12309;51.450;-2.624;2023-04-08T11:37:57;16.90;99.90
24148;DHT22;12309;51.450;-2.624;2023-04-08T11:40:23;17.10;99.90
24148;DHT22;12309;51.450;-2.624;2023-04-08T11:42:49;17.00;99.90
24148;DHT22;12309;51.450;-2.624;2023-04-08T11:45:18;16.40;99.90
24148;DHT22;12309;51.450;-2.624;2023-04-08T11:47:44;16.20;99.90
24148;DHT22;12309;51.450;-2.624;2023-04-08T11:50:11;16.10;99.90
24148;DHT22;12309;51.450;-2.624;2023-04-08T11:55:20;17.20;99.90
24148;DHT22;12309;51.450;-2.624;2023-04-08T11:57:46;18.10;99.90
24148;DHT22;12309;51.450;-2.624;2023-04-08T12:00:13;18.60;99.90
24148;DHT22;12309;51.450;-2.624;2023-04-08T12:02:39;18.30;99.90
24148;DHT22;12309;51.450;-2.624;2023-04-08T12:05:05;19.20;93.50
24148;DHT22;12309;51.450;-2.624;2023-04-08T12:07:31;20.20;50.70
24148;DHT22;12309;51.450;-2.624;2023-04-08T12:09:57;18.90;72.40
24148;DHT22;12309;51.450;-2.624;2023-04-08T12:12:22;17.50;86.40
24148;DHT22;12309;51.450;-2.624;2023-04-08T12:14:48;17.40;95.80
24148;DHT22;12309;51.450;-2.624;2023-04-08T12:17:14;17.60;96.00
24148;DHT22;12309;51.450;-2.624;2023-04-08T12:19:39;18.30;98.30
24148;DHT22;12309;51.450;-2.624;2023-04-08T12:24:31;18.60;65.10
24148;DHT22;12309;51.450;-2.624;2023-04-08T12:26:57;18.60;57.00
24148;DHT22;12309;51.450;-2.624;2023-04-08T12:29:23;19.00;45.40
24148;DHT22;12309;51.450;-2.624;2023-04-08T12:31:48;18.50;41.70
24148;DHT22;12309;51.450;-2.624;2023-04-08T12:34:14;17.60;39.50
24148;DHT22;12309;51.450;-2.624;2023-04-08T12:36:41;17.70;35.70
24148;DHT22;12309;51.450;-2.624;2023-04-08T12:39:09;18.70;29.70
24148;DHT22;12309;51.450;-2.624;2023-04-08T12:41:34;18.80;25.00
24148;DHT22;12309;51.450;-2.624;2023-04-08T12:44:00;18.80;24.80
24148;DHT22;12309;51.450;-2.624;2023-04-08T12:46:26;18.50;19.20
24148;DHT22;12309;51.450;-2.624;2023-04-08T12:48:52;20.10;30.70
24148;DHT22;12309;51.450;-2.624;2023-04-08T12:51:18;20.50;32.60
24148;DHT22;12309;51.450;-2.624;2023-04-08T12:53:44;21.50;1.00
24148;DHT22;12309;51.450;-2.624;2023-04-08T12:56:10;21.50;1.00
24148;DHT22;12309;51.450;-2.624;2023-04-08T12:58:35;21.20;1.00
24148;DHT22;12309;51.450;-2.624;2023-04-08T13:01:01;22.40;1.00
24148;DHT22;12309;51.450;-2.624;2023-04-08T13:03:27;22.50;1.00
24148;DHT22;12309;51.450;-2.624;2023-04-08T13:05:54;22.60;1.00
24148;DHT22;12309;51.450;-2.624;2023-04-08T13:08:21;22.70;1.00
24148;DHT22;12309;51.450;-2.624;2023-04-08T13:10:47;22.10;1.00
24148;DHT22;12309;51.450;-2.624;2023-04-08T13:13:13;20.60;1.00
24148;DHT22;12309;51.450;-2.624;2023-04-08T13:15:38;19.50;1.00
24148;DHT22;12309;51.450;-2.624;2023-04-08T13:20:30;17.70;1.00
24148;DHT22;12309;51.450;-2.624;2023-04-08T13:22:56;18.00;1.00
24148;DHT22;12309;51.450;-2.624;2023-04-08T13:25:22;18.50;1.00
24148;DHT22;12309;51.450;-2.624;2023-04-08T13:27:48;18.70;1.00
24148;DHT22;12309;51.450;-2.624;2023-04-08T13:30:13;19.70;1.00
24148;DHT22;12309;51.450;-2.624;2023-04-08T13:32:39;20.20;1.00
24148;DHT22;12309;51.450;-2.624;2023-04-08T13:35:05;22.50;1.00
24148;DHT22;12309;51.450;-2.624;2023-04-08T13:37:30;22.30;1.00
24148;DHT22;12309;51.450;-2.624;2023-04-08T13:39:56;22.10;1.00
24148;DHT22;12309;51.450;-2.624;2023-04-08T13:42:22;22.10;1.00
24148;DHT22;12309;51.450;-2.624;2023-04-08T13:44:48;20.90;1.00
24148;DHT22;12309;51.450;-2.624;2023-04-08T13:47:13;20.20;1.00
24148;DHT22;12309;51.450;-2.624;2023-04-08T13:49:39;20.20;1.00
24148;DHT22;12309;51.450;-2.624;2023-04-08T13:52:05;20.50;1.00
24148;DHT22;12309;51.450;-2.624;2023-04-08T13:54:31;21.60;1.00
24148;DHT22;12309;51.450;-2.624;2023-04-08T13:56:57;21.70;1.00
24148;DHT22;12309;51.450;-2.624;2023-04-08T13:59:23;21.90;1.00
24148;DHT22;12309;51.450;-2.624;2023-04-08T14:01:49;22.30;1.00
24148;DHT22;12309;51.450;-2.624;2023-04-08T14:04:19;21.40;1.00
24148;DHT22;12309;51.450;-2.624;2023-04-08T14:06:45;20.70;1.00
24148;DHT22;12309;51.450;-2.624;2023-04-08T14:09:10;21.00;1.00
24148;DHT22;12309;51.450;-2.624;2023-04-08T14:11:37;20.00;1.00
24148;DHT22;12309;51.450;-2.624;2023-04-08T14:14:02;19.10;1.00
24148;DHT22;12309;51.450;-2.624;2023-04-08T14:16:28;18.80;1.00
24148;DHT22;12309;51.450;-2.624;2023-04-08T14:18:56;19.40;1.00
24148;DHT22;12309;51.450;-2.624;2023-04-08T14:23:47;18.60;1.00
24148;DHT22;12309;51.450;-2.624;2023-04-08T14:26:13;18.90;1.00
24148;DHT22;12309;51.450;-2.624;2023-04-08T14:28:39;18.80;1.00
24148;DHT22;12309;51.450;-2.624;2023-04-08T14:31:04;19.00;1.00
24148;DHT22;12309;51.450;-2.624;2023-04-08T14:33:30;18.80;1.00
24148;DHT22;12309;51.450;-2.624;2023-04-08T14:35:56;18.50;1.00
24148;DHT22;12309;51.450;-2.624;2023-04-08T14:38:23;18.50;1.00
24148;DHT22;12309;51.450;-2.624;2023-04-08T14:40:49;17.50;1.00
24148;DHT22;12309;51.450;-2.624;2023-04-08T14:43:15;17.00;1.00
24148;DHT22;12309;51.450;-2.624;2023-04-08T14:45:40;17.10;1.00
24148;DHT22;12309;51.450;-2.624;2023-04-08T14:48:06;18.00;1.00
24148;DHT22;12309;51.450;-2.624;2023-04-08T14:50:32;18.50;1.00
24148;DHT22;12309;51.450;-2.624;2023-04-08T14:52:57;19.10;1.00
24148;DHT22;12309;51.450;-2.624;2023-04-08T14:55:23;19.40;1.00
24148;DHT22;12309;51.450;-2.624;2023-04-08T14:57:50;19.50;1.00
24148;DHT22;12309;51.450;-2.624;2023-04-08T15:00:15;19.30;1.00
24148;DHT22;12309;51.450;-2.624;2023-04-08T15:02:41;19.70;1.00
24148;DHT22;12309;51.450;-2.624;2023-04-08T15:05:07;20.50;1.00
24148;DHT22;12309;51.450;-2.624;2023-04-08T15:07:33;20.40;1.00
24148;DHT22;12309;51.450;-2.624;2023-04-08T15:09:58;20.40;1.00
24148;DHT22;12309;51.450;-2.624;2023-04-08T15:12:24;20.30;1.00
24148;DHT22;12309;51.450;-2.624;2023-04-08T15:14:50;20.00;1.00
24148;DHT22;12309;51.450;-2.624;2023-04-08T15:17:15;20.10;1.00
24148;DHT22;12309;51.450;-2.624;2023-04-08T15:19:41;20.30;1.00
24148;DHT22;12309;51.450;-2.624;2023-04-08T15:22:07;21.10;1.00
24148;DHT22;12309;51.450;-2.624;2023-04-08T15:24:32;20.90;1.00
24148;DHT22;12309;51.450;-2.624;2023-04-08T15:26:58;20.10;1.00
24148;DHT22;12309;51.450;-2.624;2023-04-08T15:29:24;20.00;1.00
24148;DHT22;12309;51.450;-2.624;2023-04-08T15:31:50;20.10;1.00
24148;DHT22;12309;51.450;-2.624;2023-04-08T15:34:17;20.10;1.00
24148;DHT22;12309;51.450;-2.624;2023-04-08T15:36:42;20.30;1.00
24148;DHT22;12309;51.450;-2.624;2023-04-08T15:39:09;19.70;1.00
24148;DHT22;12309;51.450;-2.624;2023-04-08T15:41:35;20.30;1.00
24148;DHT22;12309;51.450;-2.624;2023-04-08T15:44:01;20.70;1.00
24148;DHT22;12309;51.450;-2.624;2023-04-08T15:46:27;20.50;1.00
24148;DHT22;12309;51.450;-2.624;2023-04-08T15:48:52;20.20;1.00
24148;DHT22;12309;51.450;-2.624;2023-04-08T15:51:19;20.40;1.00
24148;DHT22;12309;51.450;-2.624;2023-04-08T15:53:44;20.00;1.00
24148;DHT22;12309;51.450;-2.624;2023-04-08T15:56:16;19.80;1.00
24148;DHT22;12309;51.450;-2.624;2023-04-08T16:01:09;18.80;1.00
24148;DHT22;12309;51.450;-2.624;2023-04-08T16:03:34;19.00;1.00
24148;DHT22;12309;51.450;-2.624;2023-04-08T16:06:00;18.80;1.00
24148;DHT22;12309;51.450;-2.624;2023-04-08T16:08:26;18.10;1.00
24148;DHT22;12309;51.450;-2.624;2023-04-08T16:10:58;17.90;1.00
24148;DHT22;12309;51.450;-2.624;2023-04-08T16:13:24;17.70;1.00
24148;DHT22;12309;51.450;-2.624;2023-04-08T16:15:49;17.20;1.00
24148;DHT22;12309;51.450;-2.624;2023-04-08T16:18:15;17.50;1.00
24148;DHT22;12309;51.450;-2.624;2023-04-08T16:20:40;17.80;1.00